sensor_id;sensor_type;location;lat;lon;timestamp;P1;durP1;ratioP1;P2;durP2;ratioP2
34920;SDS011;21128;50.016;20.002;2023-08-20T00:01:02;9.90;;;7.30;;
34920;SDS011;21128;50.016;20.002;2023-08-20T00:03:50;13.30;;;7.20;;
34920;SDS011;21128;50.016;20.002;2023-08-20T00:06:18;10.40;;;8.20;;
34920;SDS011;21128;50.016;20.002;2023-08-20T00:08:46;12.00;;;7.50;;
34920;SDS011;21128;50.016;20.002;2023-08-20T00:11:14;10.70;;;8.20;;
34920;SDS011;21128;50.016;20.002;2023-08-20T00:13:41;10.10;;;7.40;;
34920;SDS011;21128;50.016;20.002;2023-08-20T00:16:09;10.80;;;7.90;;
34920;SDS011;21128;50.016;20.002;2023-08-20T00:18:37;11.80;;;7.10;;
34920;SDS011;21128;50.016;20.002;2023-08-20T00:21:05;11.80;;;7.20;;
34920;SDS011;21128;50.016;20.002;2023-08-20T00:23:33;8.20;;;7.20;;
34920;SDS011;21128;50.016;20.002;2023-08-20T00:26:01;8.20;;;7.20;;
34920;SDS011;21128;50.016;20.002;2023-08-20T00:28:28;11.50;;;7.40;;
34920;SDS011;21128;50.016;20.002;2023-08-20T00:30:56;9.90;;;7.50;;
34920;SDS011;21128;50.016;20.002;2023-08-20T00:33:22;14.10;;;8.00;;
34920;SDS011;21128;50.016;20.002;2023-08-20T00:35:49;11.00;;;7.80;;
34920;SDS011;21128;50.016;20.002;2023-08-20T00:38:16;9.80;;;7.60;;
34920;SDS011;21128;50.016;20.002;2023-08-20T00:40:43;8.90;;;7.60;;
34920;SDS011;21128;50.016;20.002;2023-08-20T00:43:10;10.50;;;7.60;;
34920;SDS011;21128;50.016;20.002;2023-08-20T00:45:37;13.40;;;7.60;;
34920;SDS011;21128;50.016;20.002;2023-08-20T00:48:07;9.60;;;7.30;;
34920;SDS011;21128;50.016;20.002;2023-08-20T00:50:34;14.10;;;7.70;;
34920;SDS011;21128;50.016;20.002;2023-08-20T00:53:02;12.40;;;8.40;;
34920;SDS011;21128;50.016;20.002;2023-08-20T00:55:29;9.50;;;7.70;;
34920;SDS011;21128;50.016;20.002;2023-08-20T00:57:56;9.80;;;7.40;;
34920;SDS011;21128;50.016;20.002;2023-08-20T01:00:23;9.70;;;7.90;;
34920;SDS011;21128;50.016;20.002;2023-08-20T01:02:50;10.40;;;7.90;;
34920;SDS011;21128;50.016;20.002;2023-08-20T01:05:18;9.70;;;8.40;;
34920;SDS011;21128;50.016;20.002;2023-08-20T01:10:39;9.30;;;7.90;;
34920;SDS011;21128;50.016;20.002;2023-08-20T01:13:15;10.80;;;8.30;;
34920;SDS011;21128;50.016;20.002;2023-08-20T01:15:42;13.70;;;8.70;;
34920;SDS011;21128;50.016;20.002;2023-08-20T01:18:09;10.70;;;8.70;;
34920;SDS011;21128;50.016;20.002;2023-08-20T01:20:39;12.00;;;8.40;;
34920;SDS011;21128;50.016;20.002;2023-08-20T01:23:31;12.40;;;8.70;;
34920;SDS011;21128;50.016;20.002;2023-08-20T01:28:55;10.30;;;8.50;;
34920;SDS011;21128;50.016;20.002;2023-08-20T01:31:23;11.50;;;8.20;;
34920;SDS011;21128;50.016;20.002;2023-08-20T01:33:53;13.50;;;8.70;;
34920;SDS011;21128;50.016;20.002;2023-08-20T01:36:20;11.60;;;8.40;;
34920;SDS011;21128;50.016;20.002;2023-08-20T01:38:48;13.50;;;9.30;;
34920;SDS011;21128;50.016;20.002;2023-08-20T01:41:15;13.40;;;9.00;;
34920;SDS011;21128;50.016;20.002;2023-08-20T01:43:45;16.00;;;9.10;;
34920;SDS011;21128;50.016;20.002;2023-08-20T01:46:11;14.90;;;8.60;;
34920;SDS011;21128;50.016;20.002;2023-08-20T01:48:39;12.10;;;9.20;;
34920;SDS011;21128;50.016;20.002;2023-08-20T01:51:06;13.70;;;9.90;;
34920;SDS011;21128;50.016;20.002;2023-08-20T01:53:33;11.40;;;8.60;;
34920;SDS011;21128;50.016;20.002;2023-08-20T01:55:59;11.00;;;8.40;;
34920;SDS011;21128;50.016;20.002;2023-08-20T01:58:26;13.70;;;9.40;;
34920;SDS011;21128;50.016;20.002;2023-08-20T02:00:53;17.70;;;9.30;;
34920;SDS011;21128;50.016;20.002;2023-08-20T02:03:20;13.50;;;8.40;;
34920;SDS011;21128;50.016;20.002;2023-08-20T02:05:47;11.60;;;9.30;;
34920;SDS011;21128;50.016;20.002;2023-08-20T02:08:16;11.40;;;8.80;;
34920;SDS011;21128;50.016;20.002;2023-08-20T02:10:43;12.10;;;8.90;;
34920;SDS011;21128;50.016;20.002;2023-08-20T02:13:09;11.70;;;8.90;;
34920;SDS011;21128;50.016;20.002;2023-08-20T02:15:36;11.30;;;9.10;;
34920;SDS011;21128;50.016;20.002;2023-08-20T02:18:04;11.40;;;9.00;;
34920;SDS011;21128;50.016;20.002;2023-08-20T02:20:31;13.40;;;8.90;;
34920;SDS011;21128;50.016;20.002;2023-08-20T02:22:58;11.10;;;9.30;;
34920;SDS011;21128;50.016;20.002;2023-08-20T02:25:25;12.80;;;8.90;;
34920;SDS011;21128;50.016;20.002;2023-08-20T02:27:52;12.50;;;9.60;;
34920;SDS011;21128;50.016;20.002;2023-08-20T02:30:19;17.50;;;9.20;;
34920;SDS011;21128;50.016;20.002;2023-08-20T02:32:46;14.70;;;9.10;;
34920;SDS011;21128;50.016;20.002;2023-08-20T02:35:13;10.50;;;8.30;;
34920;SDS011;21128;50.016;20.002;2023-08-20T02:37:42;13.10;;;9.20;;
34920;SDS011;21128;50.016;20.002;2023-08-20T02:40:09;11.50;;;8.70;;
34920;SDS011;21128;50.016;20.002;2023-08-20T02:42:37;10.30;;;8.60;;
34920;SDS011;21128;50.016;20.002;2023-08-20T02:45:04;11.70;;;8.70;;
34920;SDS011;21128;50.016;20.002;2023-08-20T02:47:32;10.40;;;8.50;;
34920;SDS011;21128;50.016;20.002;2023-08-20T02:49:59;10.10;;;8.20;;
34920;SDS011;21128;50.016;20.002;2023-08-20T02:52:25;9.60;;;8.60;;
34920;SDS011;21128;50.016;20.002;2023-08-20T02:54:52;13.30;;;8.70;;
34920;SDS011;21128;50.016;20.002;2023-08-20T02:57:19;9.80;;;8.80;;
34920;SDS011;21128;50.016;20.002;2023-08-20T02:59:46;9.80;;;8.70;;
34920;SDS011;21128;50.016;20.002;2023-08-20T03:02:13;10.00;;;8.80;;
34920;SDS011;21128;50.016;20.002;2023-08-20T03:04:41;12.70;;;9.30;;
34920;SDS011;21128;50.016;20.002;2023-08-20T03:07:07;12.90;;;9.50;;
34920;SDS011;21128;50.016;20.002;2023-08-20T03:09:34;13.20;;;8.60;;
34920;SDS011;21128;50.016;20.002;2023-08-20T03:12:01;13.70;;;9.10;;
34920;SDS011;21128;50.016;20.002;2023-08-20T03:14:28;13.70;;;9.70;;
34920;SDS011;21128;50.016;20.002;2023-08-20T03:16:55;11.50;;;9.30;;
34920;SDS011;21128;50.016;20.002;2023-08-20T03:19:22;10.60;;;8.80;;
34920;SDS011;21128;50.016;20.002;2023-08-20T03:21:49;10.10;;;8.40;;
34920;SDS011;21128;50.016;20.002;2023-08-20T03:24:15;12.00;;;8.80;;
34920;SDS011;21128;50.016;20.002;2023-08-20T03:26:42;9.70;;;8.70;;
34920;SDS011;21128;50.016;20.002;2023-08-20T03:29:09;9.70;;;8.70;;
34920;SDS011;21128;50.016;20.002;2023-08-20T03:31:36;11.10;;;8.30;;
34920;SDS011;21128;50.016;20.002;2023-08-20T03:34:03;10.90;;;8.70;;
34920;SDS011;21128;50.016;20.002;2023-08-20T03:36:30;13.90;;;9.00;;
34920;SDS011;21128;50.016;20.002;2023-08-20T03:38:57;10.30;;;8.90;;
34920;SDS011;21128;50.016;20.002;2023-08-20T03:41:24;13.20;;;8.50;;
34920;SDS011;21128;50.016;20.002;2023-08-20T03:43:50;11.50;;;9.10;;
34920;SDS011;21128;50.016;20.002;2023-08-20T03:46:17;10.70;;;8.90;;
34920;SDS011;21128;50.016;20.002;2023-08-20T03:48:44;14.90;;;9.20;;
34920;SDS011;21128;50.016;20.002;2023-08-20T03:51:11;12.90;;;9.20;;
34920;SDS011;21128;50.016;20.002;2023-08-20T03:53:37;12.50;;;9.50;;
34920;SDS011;21128;50.016;20.002;2023-08-20T03:56:04;11.30;;;9.50;;
34920;SDS011;21128;50.016;20.002;2023-08-20T03:58:31;10.50;;;9.30;;
34920;SDS011;21128;50.016;20.002;2023-08-20T04:00:58;14.30;;;9.10;;
34920;SDS011;21128;50.016;20.002;2023-08-20T04:03:25;13.20;;;9.50;;
34920;SDS011;21128;50.016;20.002;2023-08-20T04:05:52;11.60;;;9.10;;
34920;SDS011;21128;50.016;20.002;2023-08-20T04:08:19;12.50;;;9.60;;
34920;SDS011;21128;50.016;20.002;2023-08-20T04:10:46;13.30;;;8.90;;
34920;SDS011;21128;50.016;20.002;2023-08-20T04:13:13;13.10;;;9.70;;
34920;SDS011;21128;50.016;20.002;2023-08-20T04:15:40;11.80;;;9.00;;
34920;SDS011;21128;50.016;20.002;2023-08-20T04:18:07;13.30;;;9.10;;
34920;SDS011;21128;50.016;20.002;2023-08-20T04:20:34;13.50;;;10.60;;
34920;SDS011;21128;50.016;20.002;2023-08-20T04:23:01;11.70;;;10.30;;
34920;SDS011;21128;50.016;20.002;2023-08-20T04:25:28;12.70;;;9.70;;
34920;SDS011;21128;50.016;20.002;2023-08-20T04:27:55;13.60;;;9.20;;
34920;SDS011;21128;50.016;20.002;2023-08-20T04:30:22;15.10;;;9.70;;
34920;SDS011;21128;50.016;20.002;2023-08-20T04:32:49;11.90;;;9.00;;
34920;SDS011;21128;50.016;20.002;2023-08-20T04:35:16;13.10;;;10.00;;
34920;SDS011;21128;50.016;20.002;2023-08-20T04:37:43;12.30;;;9.20;;
34920;SDS011;21128;50.016;20.002;2023-08-20T04:40:09;10.80;;;9.70;;
34920;SDS011;21128;50.016;20.002;2023-08-20T04:42:37;11.20;;;9.70;;
34920;SDS011;21128;50.016;20.002;2023-08-20T04:45:04;13.10;;;9.30;;
34920;SDS011;21128;50.016;20.002;2023-08-20T04:47:31;12.20;;;9.90;;
34920;SDS011;21128;50.016;20.002;2023-08-20T04:49:59;10.80;;;9.30;;
34920;SDS011;21128;50.016;20.002;2023-08-20T04:52:26;14.80;;;8.80;;
34920;SDS011;21128;50.016;20.002;2023-08-20T04:54:53;9.50;;;8.60;;
34920;SDS011;21128;50.016;20.002;2023-08-20T04:57:19;13.80;;;9.20;;
34920;SDS011;21128;50.016;20.002;2023-08-20T04:59:46;13.40;;;10.00;;
34920;SDS011;21128;50.016;20.002;2023-08-20T05:02:13;10.50;;;8.60;;
34920;SDS011;21128;50.016;20.002;2023-08-20T05:04:40;15.60;;;9.40;;
34920;SDS011;21128;50.016;20.002;2023-08-20T05:07:07;14.60;;;9.80;;
34920;SDS011;21128;50.016;20.002;2023-08-20T05:09:34;14.90;;;9.80;;
34920;SDS011;21128;50.016;20.002;2023-08-20T05:12:01;21.70;;;11.30;;
34920;SDS011;21128;50.016;20.002;2023-08-20T05:14:29;11.70;;;9.60;;
34920;SDS011;21128;50.016;20.002;2023-08-20T05:16:57;11.00;;;8.60;;
34920;SDS011;21128;50.016;20.002;2023-08-20T05:19:24;10.50;;;9.10;;
34920;SDS011;21128;50.016;20.002;2023-08-20T05:21:51;10.90;;;8.40;;
34920;SDS011;21128;50.016;20.002;2023-08-20T05:24:22;15.40;;;8.80;;
34920;SDS011;21128;50.016;20.002;2023-08-20T05:27:08;14.70;;;9.10;;
34920;SDS011;21128;50.016;20.002;2023-08-20T05:29:36;9.40;;;8.40;;
34920;SDS011;21128;50.016;20.002;2023-08-20T05:32:07;10.60;;;8.90;;
34920;SDS011;21128;50.016;20.002;2023-08-20T05:34:34;9.90;;;8.00;;
34920;SDS011;21128;50.016;20.002;2023-08-20T05:37:02;9.50;;;8.50;;
34920;SDS011;21128;50.016;20.002;2023-08-20T05:39:30;10.10;;;8.40;;
34920;SDS011;21128;50.016;20.002;2023-08-20T05:42:03;11.80;;;9.10;;
34920;SDS011;21128;50.016;20.002;2023-08-20T05:44:30;10.90;;;8.40;;
34920;SDS011;21128;50.016;20.002;2023-08-20T05:46:57;8.60;;;7.70;;
34920;SDS011;21128;50.016;20.002;2023-08-20T05:49:25;14.60;;;8.70;;
34920;SDS011;21128;50.016;20.002;2023-08-20T05:51:52;11.80;;;9.20;;
34920;SDS011;21128;50.016;20.002;2023-08-20T05:54:18;12.50;;;8.10;;
34920;SDS011;21128;50.016;20.002;2023-08-20T05:56:45;10.00;;;8.80;;
34920;SDS011;21128;50.016;20.002;2023-08-20T05:59:12;13.30;;;8.70;;
34920;SDS011;21128;50.016;20.002;2023-08-20T06:01:39;9.90;;;8.20;;
34920;SDS011;21128;50.016;20.002;2023-08-20T06:04:06;12.20;;;8.60;;
34920;SDS011;21128;50.016;20.002;2023-08-20T06:06:33;10.00;;;8.30;;
34920;SDS011;21128;50.016;20.002;2023-08-20T06:08:59;9.00;;;7.90;;
34920;SDS011;21128;50.016;20.002;2023-08-20T06:11:26;10.30;;;8.70;;
34920;SDS011;21128;50.016;20.002;2023-08-20T06:13:53;12.60;;;8.20;;
34920;SDS011;21128;50.016;20.002;2023-08-20T06:16:20;12.50;;;8.30;;
34920;SDS011;21128;50.016;20.002;2023-08-20T06:18:47;10.70;;;7.90;;
34920;SDS011;21128;50.016;20.002;2023-08-20T06:21:14;9.60;;;8.00;;
34920;SDS011;21128;50.016;20.002;2023-08-20T06:23:41;10.90;;;8.30;;
34920;SDS011;21128;50.016;20.002;2023-08-20T06:26:07;9.40;;;8.40;;
34920;SDS011;21128;50.016;20.002;2023-08-20T06:28:34;9.80;;;8.30;;
34920;SDS011;21128;50.016;20.002;2023-08-20T06:31:01;10.90;;;7.70;;
34920;SDS011;21128;50.016;20.002;2023-08-20T06:33:28;12.30;;;8.20;;
34920;SDS011;21128;50.016;20.002;2023-08-20T06:35:55;11.50;;;8.10;;
34920;SDS011;21128;50.016;20.002;2023-08-20T06:38:21;13.00;;;8.80;;
34920;SDS011;21128;50.016;20.002;2023-08-20T06:40:48;10.80;;;8.50;;
34920;SDS011;21128;50.016;20.002;2023-08-20T06:43:16;15.20;;;8.20;;
34920;SDS011;21128;50.016;20.002;2023-08-20T06:45:43;9.20;;;7.90;;
34920;SDS011;21128;50.016;20.002;2023-08-20T06:48:10;10.50;;;7.20;;
34920;SDS011;21128;50.016;20.002;2023-08-20T06:50:37;17.00;;;8.40;;
34920;SDS011;21128;50.016;20.002;2023-08-20T06:53:04;15.80;;;7.60;;
34920;SDS011;21128;50.016;20.002;2023-08-20T06:55:32;10.80;;;8.50;;
34920;SDS011;21128;50.016;20.002;2023-08-20T06:57:59;11.90;;;8.30;;
34920;SDS011;21128;50.016;20.002;2023-08-20T07:00:25;9.40;;;7.20;;
34920;SDS011;21128;50.016;20.002;2023-08-20T07:02:53;9.10;;;8.00;;
34920;SDS011;21128;50.016;20.002;2023-08-20T07:05:19;9.00;;;8.10;;
34920;SDS011;21128;50.016;20.002;2023-08-20T07:07:47;9.30;;;8.20;;
34920;SDS011;21128;50.016;20.002;2023-08-20T07:10:14;9.60;;;8.60;;
34920;SDS011;21128;50.016;20.002;2023-08-20T07:12:40;8.90;;;7.70;;
34920;SDS011;21128;50.016;20.002;2023-08-20T07:15:07;11.60;;;8.00;;
34920;SDS011;21128;50.016;20.002;2023-08-20T07:17:35;12.20;;;8.00;;
34920;SDS011;21128;50.016;20.002;2023-08-20T07:20:02;8.60;;;7.50;;
34920;SDS011;21128;50.016;20.002;2023-08-20T07:22:29;12.20;;;8.20;;
34920;SDS011;21128;50.016;20.002;2023-08-20T07:24:56;9.20;;;8.30;;
34920;SDS011;21128;50.016;20.002;2023-08-20T07:27:23;12.50;;;8.70;;
34920;SDS011;21128;50.016;20.002;2023-08-20T07:29:50;10.20;;;8.40;;
34920;SDS011;21128;50.016;20.002;2023-08-20T07:32:17;9.90;;;8.20;;
34920;SDS011;21128;50.016;20.002;2023-08-20T07:34:44;10.10;;;8.20;;
34920;SDS011;21128;50.016;20.002;2023-08-20T07:37:10;10.90;;;8.50;;
34920;SDS011;21128;50.016;20.002;2023-08-20T07:39:37;12.70;;;8.00;;
34920;SDS011;21128;50.016;20.002;2023-08-20T07:42:04;9.90;;;8.00;;
34920;SDS011;21128;50.016;20.002;2023-08-20T07:44:32;13.40;;;9.10;;
34920;SDS011;21128;50.016;20.002;2023-08-20T07:46:59;9.70;;;8.70;;
34920;SDS011;21128;50.016;20.002;2023-08-20T07:49:25;16.20;;;8.10;;
34920;SDS011;21128;50.016;20.002;2023-08-20T07:51:52;14.30;;;8.90;;
34920;SDS011;21128;50.016;20.002;2023-08-20T07:54:20;16.30;;;8.60;;
34920;SDS011;21128;50.016;20.002;2023-08-20T07:56:47;11.80;;;8.60;;
34920;SDS011;21128;50.016;20.002;2023-08-20T07:59:14;10.40;;;7.70;;
34920;SDS011;21128;50.016;20.002;2023-08-20T08:01:41;9.30;;;8.10;;
34920;SDS011;21128;50.016;20.002;2023-08-20T08:04:07;14.30;;;8.10;;
34920;SDS011;21128;50.016;20.002;2023-08-20T08:06:34;12.00;;;8.40;;
34920;SDS011;21128;50.016;20.002;2023-08-20T08:11:52;9.00;;;8.10;;
34920;SDS011;21128;50.016;20.002;2023-08-20T08:14:19;13.80;;;7.70;;
34920;SDS011;21128;50.016;20.002;2023-08-20T08:16:46;12.60;;;7.60;;
34920;SDS011;21128;50.016;20.002;2023-08-20T08:19:13;11.50;;;8.10;;
34920;SDS011;21128;50.016;20.002;2023-08-20T08:21:41;9.20;;;7.30;;
34920;SDS011;21128;50.016;20.002;2023-08-20T08:24:10;12.40;;;7.80;;
34920;SDS011;21128;50.016;20.002;2023-08-20T08:26:38;9.40;;;7.20;;
34920;SDS011;21128;50.016;20.002;2023-08-20T08:29:05;10.80;;;6.90;;
34920;SDS011;21128;50.016;20.002;2023-08-20T08:31:33;10.30;;;7.80;;
34920;SDS011;21128;50.016;20.002;2023-08-20T08:34:01;14.30;;;7.00;;
34920;SDS011;21128;50.016;20.002;2023-08-20T08:36:29;10.40;;;7.70;;
34920;SDS011;21128;50.016;20.002;2023-08-20T08:38:56;9.70;;;7.20;;
34920;SDS011;21128;50.016;20.002;2023-08-20T08:41:23;9.30;;;7.90;;
34920;SDS011;21128;50.016;20.002;2023-08-20T08:43:53;9.10;;;7.00;;
34920;SDS011;21128;50.016;20.002;2023-08-20T08:46:21;8.70;;;7.80;;
34920;SDS011;21128;50.016;20.002;2023-08-20T08:48:49;8.40;;;6.90;;
34920;SDS011;21128;50.016;20.002;2023-08-20T08:51:16;13.50;;;7.30;;
34920;SDS011;21128;50.016;20.002;2023-08-20T08:53:43;12.00;;;7.40;;
34920;SDS011;21128;50.016;20.002;2023-08-20T08:56:11;7.90;;;7.00;;
34920;SDS011;21128;50.016;20.002;2023-08-20T08:58:38;12.80;;;7.20;;
34920;SDS011;21128;50.016;20.002;2023-08-20T09:01:05;7.60;;;6.60;;
34920;SDS011;21128;50.016;20.002;2023-08-20T09:03:32;9.10;;;6.40;;
34920;SDS011;21128;50.016;20.002;2023-08-20T09:06:01;11.10;;;6.90;;
34920;SDS011;21128;50.016;20.002;2023-08-20T09:08:34;10.80;;;6.80;;
34920;SDS011;21128;50.016;20.002;2023-08-20T09:11:01;8.40;;;7.10;;
34920;SDS011;21128;50.016;20.002;2023-08-20T09:13:39;8.10;;;7.10;;
34920;SDS011;21128;50.016;20.002;2023-08-20T09:16:10;16.00;;;7.30;;
34920;SDS011;21128;50.016;20.002;2023-08-20T09:18:39;8.90;;;7.00;;
34920;SDS011;21128;50.016;20.002;2023-08-20T09:21:07;9.60;;;6.40;;
34920;SDS011;21128;50.016;20.002;2023-08-20T09:23:35;8.00;;;7.10;;
34920;SDS011;21128;50.016;20.002;2023-08-20T09:26:03;7.80;;;7.00;;
34920;SDS011;21128;50.016;20.002;2023-08-20T09:28:41;9.20;;;6.60;;
34920;SDS011;21128;50.016;20.002;2023-08-20T09:31:10;9.20;;;7.40;;
34920;SDS011;21128;50.016;20.002;2023-08-20T09:33:42;8.60;;;7.40;;
34920;SDS011;21128;50.016;20.002;2023-08-20T09:36:16;11.10;;;7.80;;
34920;SDS011;21128;50.016;20.002;2023-08-20T09:38:43;7.20;;;6.60;;
34920;SDS011;21128;50.016;20.002;2023-08-20T09:41:10;8.20;;;7.40;;
34920;SDS011;21128;50.016;20.002;2023-08-20T09:43:38;9.60;;;7.30;;
34920;SDS011;21128;50.016;20.002;2023-08-20T09:46:05;8.30;;;7.40;;
34920;SDS011;21128;50.016;20.002;2023-08-20T09:48:34;9.60;;;6.90;;
34920;SDS011;21128;50.016;20.002;2023-08-20T09:51:04;8.50;;;7.60;;
34920;SDS011;21128;50.016;20.002;2023-08-20T09:53:36;8.90;;;7.00;;
34920;SDS011;21128;50.016;20.002;2023-08-20T09:56:09;8.90;;;7.10;;
34920;SDS011;21128;50.016;20.002;2023-08-20T09:58:42;13.20;;;6.70;;
34920;SDS011;21128;50.016;20.002;2023-08-20T10:01:10;12.40;;;7.20;;
34920;SDS011;21128;50.016;20.002;2023-08-20T10:03:39;9.60;;;7.20;;
34920;SDS011;21128;50.016;20.002;2023-08-20T10:06:06;9.90;;;7.00;;
34920;SDS011;21128;50.016;20.002;2023-08-20T10:08:33;10.70;;;7.10;;
34920;SDS011;21128;50.016;20.002;2023-08-20T10:11:00;8.20;;;6.80;;
34920;SDS011;21128;50.016;20.002;2023-08-20T10:13:27;8.40;;;6.80;;
34920;SDS011;21128;50.016;20.002;2023-08-20T10:15:54;10.30;;;7.20;;
34920;SDS011;21128;50.016;20.002;2023-08-20T10:18:21;12.30;;;7.30;;
34920;SDS011;21128;50.016;20.002;2023-08-20T10:20:51;8.40;;;6.70;;
34920;SDS011;21128;50.016;20.002;2023-08-20T10:23:22;8.80;;;6.70;;
34920;SDS011;21128;50.016;20.002;2023-08-20T10:25:52;9.90;;;6.50;;
34920;SDS011;21128;50.016;20.002;2023-08-20T10:28:24;7.10;;;5.90;;
34920;SDS011;21128;50.016;20.002;2023-08-20T10:31:11;9.30;;;6.80;;
34920;SDS011;21128;50.016;20.002;2023-08-20T10:33:48;10.80;;;6.70;;
34920;SDS011;21128;50.016;20.002;2023-08-20T10:36:21;14.50;;;6.70;;
34920;SDS011;21128;50.016;20.002;2023-08-20T10:38:54;6.40;;;5.80;;
34920;SDS011;21128;50.016;20.002;2023-08-20T10:41:26;6.30;;;5.70;;
34920;SDS011;21128;50.016;20.002;2023-08-20T10:43:57;6.70;;;5.10;;
34920;SDS011;21128;50.016;20.002;2023-08-20T10:46:28;7.90;;;5.60;;
34920;SDS011;21128;50.016;20.002;2023-08-20T10:49:02;7.60;;;5.20;;
34920;SDS011;21128;50.016;20.002;2023-08-20T10:51:33;7.50;;;5.10;;
34920;SDS011;21128;50.016;20.002;2023-08-20T10:56:54;8.30;;;5.20;;
34920;SDS011;21128;50.016;20.002;2023-08-20T10:59:28;6.60;;;5.90;;
34920;SDS011;21128;50.016;20.002;2023-08-20T11:02:01;6.20;;;5.10;;
34920;SDS011;21128;50.016;20.002;2023-08-20T11:04:28;5.90;;;5.30;;
34920;SDS011;21128;50.016;20.002;2023-08-20T11:06:59;6.10;;;5.50;;
34920;SDS011;21128;50.016;20.002;2023-08-20T11:09:27;7.20;;;6.10;;
34920;SDS011;21128;50.016;20.002;2023-08-20T11:11:55;10.70;;;6.20;;
34920;SDS011;21128;50.016;20.002;2023-08-20T11:14:22;6.70;;;5.80;;
34920;SDS011;21128;50.016;20.002;2023-08-20T11:16:50;6.10;;;5.40;;
34920;SDS011;21128;50.016;20.002;2023-08-20T11:19:21;5.50;;;4.60;;
34920;SDS011;21128;50.016;20.002;2023-08-20T11:21:49;6.20;;;4.70;;
34920;SDS011;21128;50.016;20.002;2023-08-20T11:24:17;5.90;;;4.90;;
34920;SDS011;21128;50.016;20.002;2023-08-20T11:26:46;8.50;;;5.00;;
34920;SDS011;21128;50.016;20.002;2023-08-20T11:29:13;6.10;;;5.50;;
34920;SDS011;21128;50.016;20.002;2023-08-20T11:31:48;8.80;;;5.50;;
34920;SDS011;21128;50.016;20.002;2023-08-20T11:34:15;7.50;;;5.00;;
34920;SDS011;21128;50.016;20.002;2023-08-20T11:36:44;9.70;;;6.50;;
34920;SDS011;21128;50.016;20.002;2023-08-20T11:39:11;8.90;;;5.30;;
34920;SDS011;21128;50.016;20.002;2023-08-20T11:41:39;8.10;;;5.40;;
34920;SDS011;21128;50.016;20.002;2023-08-20T11:44:09;7.70;;;5.50;;
34920;SDS011;21128;50.016;20.002;2023-08-20T11:46:43;7.60;;;5.60;;
34920;SDS011;21128;50.016;20.002;2023-08-20T11:49:11;9.90;;;6.80;;
34920;SDS011;21128;50.016;20.002;2023-08-20T11:51:39;9.20;;;6.50;;
34920;SDS011;21128;50.016;20.002;2023-08-20T11:54:11;7.10;;;4.70;;
34920;SDS011;21128;50.016;20.002;2023-08-20T11:56:43;10.90;;;5.20;;
34920;SDS011;21128;50.016;20.002;2023-08-20T11:59:13;6.40;;;5.20;;
34920;SDS011;21128;50.016;20.002;2023-08-20T12:01:41;9.80;;;5.10;;
34920;SDS011;21128;50.016;20.002;2023-08-20T12:04:10;6.10;;;4.60;;
34920;SDS011;21128;50.016;20.002;2023-08-20T12:06:37;8.60;;;4.80;;
34920;SDS011;21128;50.016;20.002;2023-08-20T12:09:23;5.60;;;4.90;;
34920;SDS011;21128;50.016;20.002;2023-08-20T12:11:51;6.40;;;5.40;;
34920;SDS011;21128;50.016;20.002;2023-08-20T12:14:22;9.40;;;5.60;;
34920;SDS011;21128;50.016;20.002;2023-08-20T12:16:49;7.20;;;4.80;;
34920;SDS011;21128;50.016;20.002;2023-08-20T12:19:19;6.10;;;5.50;;
34920;SDS011;21128;50.016;20.002;2023-08-20T12:21:46;5.40;;;4.80;;
34920;SDS011;21128;50.016;20.002;2023-08-20T12:24:13;6.60;;;5.10;;
34920;SDS011;21128;50.016;20.002;2023-08-20T12:26:40;5.80;;;5.00;;
34920;SDS011;21128;50.016;20.002;2023-08-20T12:29:07;7.20;;;6.10;;
34920;SDS011;21128;50.016;20.002;2023-08-20T12:31:34;6.30;;;5.70;;
34920;SDS011;21128;50.016;20.002;2023-08-20T12:34:02;8.10;;;5.90;;
34920;SDS011;21128;50.016;20.002;2023-08-20T12:36:29;9.20;;;5.80;;
34920;SDS011;21128;50.016;20.002;2023-08-20T12:38:56;11.20;;;5.90;;
34920;SDS011;21128;50.016;20.002;2023-08-20T12:41:24;8.60;;;5.10;;
34920;SDS011;21128;50.016;20.002;2023-08-20T12:43:51;9.00;;;6.50;;
34920;SDS011;21128;50.016;20.002;2023-08-20T12:46:17;8.90;;;6.40;;
34920;SDS011;21128;50.016;20.002;2023-08-20T12:48:44;18.10;;;7.10;;
34920;SDS011;21128;50.016;20.002;2023-08-20T12:51:11;8.10;;;6.00;;
34920;SDS011;21128;50.016;20.002;2023-08-20T12:53:40;7.50;;;6.80;;
34920;SDS011;21128;50.016;20.002;2023-08-20T12:56:07;7.40;;;5.40;;
34920;SDS011;21128;50.016;20.002;2023-08-20T12:58:34;10.00;;;6.20;;
34920;SDS011;21128;50.016;20.002;2023-08-20T13:01:01;7.10;;;6.40;;
34920;SDS011;21128;50.016;20.002;2023-08-20T13:03:28;10.20;;;7.20;;
34920;SDS011;21128;50.016;20.002;2023-08-20T13:05:55;8.50;;;6.20;;
34920;SDS011;21128;50.016;20.002;2023-08-20T13:08:26;6.70;;;6.00;;
34920;SDS011;21128;50.016;20.002;2023-08-20T13:10:53;10.20;;;6.20;;
34920;SDS011;21128;50.016;20.002;2023-08-20T13:13:22;8.80;;;6.20;;
34920;SDS011;21128;50.016;20.002;2023-08-20T13:15:50;10.00;;;6.20;;
34920;SDS011;21128;50.016;20.002;2023-08-20T13:18:19;6.90;;;5.70;;
34920;SDS011;21128;50.016;20.002;2023-08-20T13:20:46;7.60;;;6.30;;
34920;SDS011;21128;50.016;20.002;2023-08-20T13:23:14;7.80;;;6.30;;
34920;SDS011;21128;50.016;20.002;2023-08-20T13:25:40;8.00;;;6.50;;
34920;SDS011;21128;50.016;20.002;2023-08-20T13:28:09;7.80;;;6.70;;
34920;SDS011;21128;50.016;20.002;2023-08-20T13:30:36;7.20;;;6.50;;
34920;SDS011;21128;50.016;20.002;2023-08-20T13:33:02;8.60;;;6.50;;
34920;SDS011;21128;50.016;20.002;2023-08-20T13:35:30;8.90;;;6.10;;
34920;SDS011;21128;50.016;20.002;2023-08-20T13:37:57;10.20;;;6.50;;
34920;SDS011;21128;50.016;20.002;2023-08-20T13:40:23;9.90;;;6.80;;
34920;SDS011;21128;50.016;20.002;2023-08-20T13:42:51;8.20;;;7.40;;
34920;SDS011;21128;50.016;20.002;2023-08-20T13:45:18;11.30;;;7.70;;
34920;SDS011;21128;50.016;20.002;2023-08-20T13:47:44;14.00;;;6.70;;
34920;SDS011;21128;50.016;20.002;2023-08-20T13:50:11;13.90;;;7.00;;
34920;SDS011;21128;50.016;20.002;2023-08-20T13:52:38;8.30;;;7.00;;
34920;SDS011;21128;50.016;20.002;2023-08-20T13:55:05;10.90;;;6.80;;
34920;SDS011;21128;50.016;20.002;2023-08-20T13:57:32;9.60;;;8.00;;
34920;SDS011;21128;50.016;20.002;2023-08-20T13:59:59;8.00;;;7.30;;
34920;SDS011;21128;50.016;20.002;2023-08-20T14:02:25;11.90;;;7.20;;
34920;SDS011;21128;50.016;20.002;2023-08-20T14:04:52;11.20;;;8.20;;
34920;SDS011;21128;50.016;20.002;2023-08-20T14:07:19;13.10;;;7.80;;
34920;SDS011;21128;50.016;20.002;2023-08-20T14:09:46;12.20;;;8.10;;
34920;SDS011;21128;50.016;20.002;2023-08-20T14:12:12;10.70;;;7.80;;
34920;SDS011;21128;50.016;20.002;2023-08-20T14:14:39;15.90;;;7.90;;
34920;SDS011;21128;50.016;20.002;2023-08-20T14:17:06;11.20;;;8.10;;
34920;SDS011;21128;50.016;20.002;2023-08-20T14:19:33;8.00;;;6.90;;
34920;SDS011;21128;50.016;20.002;2023-08-20T14:22:00;11.20;;;7.90;;
34920;SDS011;21128;50.016;20.002;2023-08-20T14:24:27;10.90;;;8.40;;
34920;SDS011;21128;50.016;20.002;2023-08-20T14:26:53;11.70;;;7.80;;
34920;SDS011;21128;50.016;20.002;2023-08-20T14:29:20;9.80;;;7.60;;
34920;SDS011;21128;50.016;20.002;2023-08-20T14:31:47;8.40;;;7.40;;
34920;SDS011;21128;50.016;20.002;2023-08-20T14:34:14;7.90;;;6.70;;
34920;SDS011;21128;50.016;20.002;2023-08-20T14:36:41;9.40;;;6.70;;
34920;SDS011;21128;50.016;20.002;2023-08-20T14:39:07;8.90;;;6.50;;
34920;SDS011;21128;50.016;20.002;2023-08-20T14:41:34;9.00;;;5.90;;